Glory Sky — 3EPW8 — position and weather

sailwx.info

Track history (hours):
 
Tides and Currents Weather Stations Pressure Air Temp Water Temp Dewpoint Dewpoint Depression Visibility Wind Speed Wind Dir Waves Ship Positions

Glory Sky

Last reported at 2017-Nov-11 14:13 UTC. Time now 2017-Nov-25 04:14 UTC.
Position N 24°41' W 016°41'.
Warning: this ship's position is 13 days out of date.

Length 145 m; draft 6.8 m.

Type: Cargo ship. MMSI: 352150000.

Date/timePositionNaut miles runAvg speedWind from/ knotsBaromVisibWave heightAir tempDewpointWater temp
2017-Nov-11 14:13N 24°41' W 016°41'312.3
2017-Nov-11 14:00N 24°43' W 016°40'612.5
2017-Nov-11 13:30N 24°48' W 016°36'712.9
2017-Nov-11 12:59N 24°53' W 016°31'612.6
2017-Nov-11 12:30N 24°58' W 016°27'612.5
2017-Nov-11 11:59N 25°03' W 016°23'912.5
2017-Nov-11 11:17N 25°10' W 016°16'312.3
2017-Nov-11 11:00N 25°12' W 016°14'1912.3
2017-Nov-11 09:26N 25°28' W 016°01'612.6
2017-Nov-11 09:00N 25°32' W 015°57'712.7
2017-Nov-11 08:25N 25°38' W 015°52'6812.6
2017-Nov-11 03:03N 26°30' W 015°04'112.5
2017-Nov-11 03:00N 26°30' W 015°04'1012.5
2017-Nov-11 02:13N 26°38' W 014°57'312.4
2017-Nov-11 02:00N 26°40' W 014°55'712.2
2017-Nov-11 01:25N 26°46' W 014°50'512.2
2017-Nov-11 01:00N 26°50' W 014°46'612.5
2017-Nov-11 00:30N 26°55' W 014°42'1112.6
2017-Nov-10 23:38N 27°03' W 014°34'212.6
2017-Nov-10 23:30N 27°04' W 014°33'612.7
2017-Nov-10 23:00N 27°09' W 014°29'612.8
2017-Nov-10 22:30N 27°14' W 014°24'612.4
2017-Nov-10 22:00N 27°19' W 014°20'612.6
2017-Nov-10 21:30N 27°24' W 014°15'713.4
2017-Nov-10 21:00N 27°29' W 014°11'713.5
2017-Nov-10 20:30N 27°35' W 014°06'713.6
2017-Nov-10 20:00N 27°40' W 014°01'713.0
2017-Nov-10 19:30N 27°45' W 013°56'612.9
2017-Nov-10 19:00N 27°50' W 013°52'612.8
2017-Nov-10 18:30N 27°55' W 013°47'612.8
2017-Nov-10 18:00N 27°60' W 013°43'712.6
2017-Nov-10 17:27N 28°05' W 013°38'512.5
2017-Nov-10 17:00N 28°10' W 013°34'612.3
2017-Nov-10 16:30N 28°15' W 013°30'612.3
2017-Nov-10 16:00N 28°20' W 013°26'612.5
2017-Nov-10 15:30N 28°25' W 013°22'712.9
2017-Nov-10 15:00N 28°30' W 013°18'613.0
2017-Nov-10 14:30N 28°36' W 013°14'712.9
2017-Nov-10 13:59N 28°41' W 013°09'912.6
2017-Nov-10 13:14N 28°49' W 013°03'312.8
2017-Nov-10 12:59N 28°51' W 013°01'712.7
2017-Nov-10 12:28N 28°57' W 012°56'612.4
2017-Nov-10 12:00N 29°01' W 012°52'612.3
2017-Nov-10 11:30N 29°06' W 012°48'612.5
2017-Nov-10 11:00N 29°11' W 012°44'612.6
2017-Nov-10 10:30N 29°16' W 012°40'712.8
2017-Nov-10 09:58N 29°22' W 012°35'612.9
2017-Nov-10 09:30N 29°27' W 012°31'712.7
2017-Nov-10 08:59N 29°32' W 012°27'612.7
2017-Nov-10 08:30N 29°37' W 012°23'1512.8
2017-Nov-10 07:18N 29°49' W 012°12'413.3
2017-Nov-10 07:01N 29°52' W 012°09'713.1
2017-Nov-10 06:29N 29°58' W 012°05'712.9
2017-Nov-10 05:58N 30°03' W 012°00'2112.5
2017-Nov-10 04:17N 30°21' W 011°46'612.4
2017-Nov-10 03:48N 30°26' W 011°42'612.5
2017-Nov-10 03:20N 30°30' W 011°38'512.6
2017-Nov-10 02:55N 30°35' W 011°35'612.9
2017-Nov-10 02:28N 30°39' W 011°31'612.9
2017-Nov-10 01:58N 30°44' W 011°27'713.0
2017-Nov-10 01:28N 30°50' W 011°22'2013.1
2017-Nov-09 23:54N 31°06' W 011°08'10413.3
2017-Nov-09 16:06N 32°30' W 009°56'213.5
2017-Nov-09 15:58N 32°32' W 009°55'30712.6
2017-Nov-08 15:41N 35°60' W 005°22'311.0
2017-Nov-08 15:26N 35°58' W 005°20'4 9.9
2017-Nov-08 15:01N 35°54' W 005°19'0 0.8
2017-Nov-08 14:29N 35°54' W 005°19'0 0.0
2017-Nov-08 14:00N 35°54' W 005°19'0 0.0
2017-Nov-08 13:29N 35°54' W 005°19'0 0.0
2017-Nov-08 12:59N 35°54' W 005°19'0 0.0
2017-Nov-08 12:29N 35°54' W 005°19'0 0.0
2017-Nov-08 11:59N 35°54' W 005°19'0 0.0
2017-Nov-08 11:29N 35°54' W 005°19'0 0.0
2017-Nov-08 10:59N 35°54' W 005°19'0 0.0
2017-Nov-08 10:29N 35°54' W 005°19'0 0.0
2017-Nov-08 09:58N 35°54' W 005°19'0 0.0
2017-Nov-08 09:28N 35°54' W 005°19'0 0.0
2017-Nov-08 08:58N 35°54' W 005°19'0 0.0
2017-Nov-08 08:28N 35°54' W 005°19'0 0.0
2017-Nov-08 07:58N 35°54' W 005°19'0 0.0
2017-Nov-08 07:30N 35°54' W 005°19'1 1.4
2017-Nov-08 07:00N 35°54' W 005°19'2 4.2
2017-Nov-08 06:30N 35°56' W 005°18'  
2017-Nov-04 20:00N 36°00' W 005°16'4 7.7
2017-Nov-04 19:30N 35°59' W 005°20'  
2017-Nov-02 08:43N 28°42' W 013°08'311.8
2017-Nov-02 08:30N 28°40' W 013°10'2211.5
2017-Nov-02 06:34N 28°22' W 013°25'111.5
2017-Nov-02 06:29N 28°21' W 013°25'1111.7
2017-Nov-02 05:31N 28°12' W 013°33'211.8
2017-Nov-02 05:19N 28°10' W 013°35'411.8
2017-Nov-02 05:00N 28°07' W 013°37'811.8
2017-Nov-02 04:21N 28°01' W 013°42'411.8
2017-Nov-02 04:00N 27°58' W 013°45'611.8
2017-Nov-02 03:30N 27°53' W 013°49'611.7
2017-Nov-02 03:00N 27°48' W 013°53'611.2
2017-Nov-02 02:28N 27°44' W 013°58'511.0
2017-Nov-02 02:01N 27°40' W 014°01'510.8
2017-Nov-02 01:30N 27°35' W 014°05'510.7
2017-Nov-02 01:00N 27°31' W 014°09'610.8
2017-Nov-02 00:29N 27°27' W 014°13'510.7
2017-Nov-02 00:00N 27°23' W 014°17'510.5
2017-Nov-01 23:29N 27°19' W 014°20'510.5
2017-Nov-01 23:00N 27°15' W 014°24'610.9
2017-Nov-01 22:25N 27°10' W 014°28'611.3
2017-Nov-01 21:51N 27°05' W 014°33'411.5
2017-Nov-01 21:30N 27°02' W 014°36'611.5
2017-Nov-01 21:00N 26°57' W 014°40'611.5
2017-Nov-01 20:30N 26°53' W 014°44'611.4
2017-Nov-01 20:00N 26°48' W 014°48'611.2
2017-Nov-01 19:30N 26°44' W 014°52'611.2
2017-Nov-01 19:00N 26°40' W 014°56'611.0
2017-Nov-01 18:30N 26°35' W 014°60'  
Track history (hours):
 
Tides and Currents Weather Stations Pressure Air Temp Water Temp Dewpoint Dewpoint Depression Visibility Wind Speed Wind Dir Waves Ship Positions

Glory Sky

Last reported at 2017-Nov-11 14:13 UTC. Time now 2017-Nov-25 04:14 UTC.
Position N 24°41' W 016°41'.
Warning: this ship's position is 13 days out of date.

Length 145 m; draft 6.8 m.

Type: Cargo ship. MMSI: 352150000.

Date/timePositionNaut miles runAvg speedWind from/ knotsBaromVisibWave heightAir tempDewpointWater temp
2017-Nov-11 14:13N 24°41' W 016°41'312.3
2017-Nov-11 14:00N 24°43' W 016°40'612.5
2017-Nov-11 13:30N 24°48' W 016°36'712.9
2017-Nov-11 12:59N 24°53' W 016°31'612.6
2017-Nov-11 12:30N 24°58' W 016°27'612.5
2017-Nov-11 11:59N 25°03' W 016°23'912.5
2017-Nov-11 11:17N 25°10' W 016°16'312.3
2017-Nov-11 11:00N 25°12' W 016°14'1912.3
2017-Nov-11 09:26N 25°28' W 016°01'612.6
2017-Nov-11 09:00N 25°32' W 015°57'712.7
2017-Nov-11 08:25N 25°38' W 015°52'6812.6
2017-Nov-11 03:03N 26°30' W 015°04'112.5
2017-Nov-11 03:00N 26°30' W 015°04'1012.5
2017-Nov-11 02:13N 26°38' W 014°57'312.4
2017-Nov-11 02:00N 26°40' W 014°55'712.2
2017-Nov-11 01:25N 26°46' W 014°50'512.2
2017-Nov-11 01:00N 26°50' W 014°46'612.5
2017-Nov-11 00:30N 26°55' W 014°42'1112.6
2017-Nov-10 23:38N 27°03' W 014°34'212.6
2017-Nov-10 23:30N 27°04' W 014°33'612.7
2017-Nov-10 23:00N 27°09' W 014°29'612.8
2017-Nov-10 22:30N 27°14' W 014°24'612.4
2017-Nov-10 22:00N 27°19' W 014°20'612.6
2017-Nov-10 21:30N 27°24' W 014°15'713.4
2017-Nov-10 21:00N 27°29' W 014°11'713.5
2017-Nov-10 20:30N 27°35' W 014°06'713.6
2017-Nov-10 20:00N 27°40' W 014°01'713.0
2017-Nov-10 19:30N 27°45' W 013°56'612.9
2017-Nov-10 19:00N 27°50' W 013°52'612.8
2017-Nov-10 18:30N 27°55' W 013°47'612.8
2017-Nov-10 18:00N 27°60' W 013°43'712.6
2017-Nov-10 17:27N 28°05' W 013°38'512.5
2017-Nov-10 17:00N 28°10' W 013°34'612.3
2017-Nov-10 16:30N 28°15' W 013°30'612.3
2017-Nov-10 16:00N 28°20' W 013°26'612.5
2017-Nov-10 15:30N 28°25' W 013°22'712.9
2017-Nov-10 15:00N 28°30' W 013°18'613.0
2017-Nov-10 14:30N 28°36' W 013°14'712.9
2017-Nov-10 13:59N 28°41' W 013°09'912.6
2017-Nov-10 13:14N 28°49' W 013°03'312.8
2017-Nov-10 12:59N 28°51' W 013°01'712.7
2017-Nov-10 12:28N 28°57' W 012°56'612.4
2017-Nov-10 12:00N 29°01' W 012°52'612.3
2017-Nov-10 11:30N 29°06' W 012°48'612.5
2017-Nov-10 11:00N 29°11' W 012°44'612.6
2017-Nov-10 10:30N 29°16' W 012°40'712.8
2017-Nov-10 09:58N 29°22' W 012°35'612.9
2017-Nov-10 09:30N 29°27' W 012°31'712.7
2017-Nov-10 08:59N 29°32' W 012°27'612.7
2017-Nov-10 08:30N 29°37' W 012°23'1512.8
2017-Nov-10 07:18N 29°49' W 012°12'413.3
2017-Nov-10 07:01N 29°52' W 012°09'713.1
2017-Nov-10 06:29N 29°58' W 012°05'712.9
2017-Nov-10 05:58N 30°03' W 012°00'2112.5
2017-Nov-10 04:17N 30°21' W 011°46'612.4
2017-Nov-10 03:48N 30°26' W 011°42'612.5
2017-Nov-10 03:20N 30°30' W 011°38'512.6
2017-Nov-10 02:55N 30°35' W 011°35'612.9
2017-Nov-10 02:28N 30°39' W 011°31'612.9
2017-Nov-10 01:58N 30°44' W 011°27'713.0
2017-Nov-10 01:28N 30°50' W 011°22'2013.1
2017-Nov-09 23:54N 31°06' W 011°08'10413.3
2017-Nov-09 16:06N 32°30' W 009°56'213.5
2017-Nov-09 15:58N 32°32' W 009°55'30712.6
2017-Nov-08 15:41N 35°60' W 005°22'311.0
2017-Nov-08 15:26N 35°58' W 005°20'4 9.9
2017-Nov-08 15:01N 35°54' W 005°19'0 0.8
2017-Nov-08 14:29N 35°54' W 005°19'0 0.0
2017-Nov-08 14:00N 35°54' W 005°19'0 0.0
2017-Nov-08 13:29N 35°54' W 005°19'0 0.0
2017-Nov-08 12:59N 35°54' W 005°19'0 0.0
2017-Nov-08 12:29N 35°54' W 005°19'0 0.0
2017-Nov-08 11:59N 35°54' W 005°19'0 0.0
2017-Nov-08 11:29N 35°54' W 005°19'0 0.0
2017-Nov-08 10:59N 35°54' W 005°19'0 0.0
2017-Nov-08 10:29N 35°54' W 005°19'0 0.0
2017-Nov-08 09:58N 35°54' W 005°19'0 0.0
2017-Nov-08 09:28N 35°54' W 005°19'0 0.0
2017-Nov-08 08:58N 35°54' W 005°19'0 0.0
2017-Nov-08 08:28N 35°54' W 005°19'0 0.0
2017-Nov-08 07:58N 35°54' W 005°19'0 0.0
2017-Nov-08 07:30N 35°54' W 005°19'1 1.4
2017-Nov-08 07:00N 35°54' W 005°19'2 4.2
2017-Nov-08 06:30N 35°56' W 005°18'  
2017-Nov-04 20:00N 36°00' W 005°16'4 7.7
2017-Nov-04 19:30N 35°59' W 005°20'  
2017-Nov-02 08:43N 28°42' W 013°08'311.8
2017-Nov-02 08:30N 28°40' W 013°10'2211.5
2017-Nov-02 06:34N 28°22' W 013°25'111.5
2017-Nov-02 06:29N 28°21' W 013°25'1111.7
2017-Nov-02 05:31N 28°12' W 013°33'211.8
2017-Nov-02 05:19N 28°10' W 013°35'411.8
2017-Nov-02 05:00N 28°07' W 013°37'811.8
2017-Nov-02 04:21N 28°01' W 013°42'411.8
2017-Nov-02 04:00N 27°58' W 013°45'611.8
2017-Nov-02 03:30N 27°53' W 013°49'611.7
2017-Nov-02 03:00N 27°48' W 013°53'611.2
2017-Nov-02 02:28N 27°44' W 013°58'511.0
2017-Nov-02 02:01N 27°40' W 014°01'510.8
2017-Nov-02 01:30N 27°35' W 014°05'510.7
2017-Nov-02 01:00N 27°31' W 014°09'610.8
2017-Nov-02 00:29N 27°27' W 014°13'510.7
2017-Nov-02 00:00N 27°23' W 014°17'510.5
2017-Nov-01 23:29N 27°19' W 014°20'510.5
2017-Nov-01 23:00N 27°15' W 014°24'610.9
2017-Nov-01 22:25N 27°10' W 014°28'611.3
2017-Nov-01 21:51N 27°05' W 014°33'411.5
2017-Nov-01 21:30N 27°02' W 014°36'611.5
2017-Nov-01 21:00N 26°57' W 014°40'611.5
2017-Nov-01 20:30N 26°53' W 014°44'611.4
2017-Nov-01 20:00N 26°48' W 014°48'611.2
2017-Nov-01 19:30N 26°44' W 014°52'611.2
2017-Nov-01 19:00N 26°40' W 014°56'611.0
2017-Nov-01 18:30N 26°35' W 014°60'  

Dump ship's entire track history